Aviation Digital Data Service (ADDS)

Output produced by TAFs form (0012 UTC 26 April 2017)
found at http://aviationweather.gov/adds/tafs/
 
KFMN 252324Z 2600/2624 30015G25KT P6SM VCSH BKN050 
     FM260300 30015KT P6SM SCT040 
     FM260600 29009KT P6SM FEW035 
     FM261600 28013G23KT P6SM SCT040 
     FM261900 29018G30KT P6SM SCT050